sensor_id;sensor_type;location;lat;lon;timestamp;pressure;altitude;pressure_sealevel;temperature;humidity
75913;BME280;64592;52.168;21.040;2023-04-24T00:04:07;99490.34;;;14.75;46.96
75913;BME280;64592;52.168;21.040;2023-04-24T00:09:12;99498.91;;;14.55;47.78
75913;BME280;64592;52.168;21.040;2023-04-24T00:14:13;99496.31;;;14.45;47.93
75913;BME280;64592;52.168;21.040;2023-04-24T00:19:15;99492.88;;;14.35;48.53
75913;BME280;64592;52.168;21.040;2023-04-24T00:24:18;99490.94;;;14.27;48.39
75913;BME280;64592;52.168;21.040;2023-04-24T00:29:20;99489.19;;;14.18;48.93
75913;BME280;64592;52.168;21.040;2023-04-24T00:34:21;99474.44;;;14.13;49.29
75913;BME280;64592;52.168;21.040;2023-04-24T00:39:25;99476.28;;;14.12;49.25
75913;BME280;64592;52.168;21.040;2023-04-24T00:44:26;99464.59;;;14.12;49.36
75913;BME280;64592;52.168;21.040;2023-04-24T00:49:28;99467.31;;;14.12;49.27
75913;BME280;64592;52.168;21.040;2023-04-24T00:54:31;99474.69;;;14.02;50.10
75913;BME280;64592;52.168;21.040;2023-04-24T00:59:33;99479.75;;;13.96;50.57
75913;BME280;64592;52.168;21.040;2023-04-24T01:04:36;99462.06;;;13.84;51.09
75913;BME280;64592;52.168;21.040;2023-04-24T01:09:40;99466.56;;;13.76;51.21
75913;BME280;64592;52.168;21.040;2023-04-24T01:14:42;99476.78;;;13.64;53.49
75913;BME280;64592;52.168;21.040;2023-04-24T01:19:44;99465.19;;;13.54;52.46
75913;BME280;64592;52.168;21.040;2023-04-24T01:24:47;99478.19;;;13.50;51.78
75913;BME280;64592;52.168;21.040;2023-04-24T01:29:49;99468.06;;;13.52;52.35
75913;BME280;64592;52.168;21.040;2023-04-24T01:34:52;99465.13;;;13.46;52.69
75913;BME280;64592;52.168;21.040;2023-04-24T01:39:55;99457.53;;;13.49;52.06
75913;BME280;64592;52.168;21.040;2023-04-24T01:44:57;99463.78;;;13.50;54.16
75913;BME280;64592;52.168;21.040;2023-04-24T01:49:59;99460.34;;;13.40;54.44
75913;BME280;64592;52.168;21.040;2023-04-24T01:55:02;99458.25;;;13.34;53.36
75913;BME280;64592;52.168;21.040;2023-04-24T02:00:05;99444.66;;;13.26;52.83
75913;BME280;64592;52.168;21.040;2023-04-24T02:05:08;99445.31;;;13.28;52.97
75913;BME280;64592;52.168;21.040;2023-04-24T02:10:12;99437.84;;;13.21;52.99
75913;BME280;64592;52.168;21.040;2023-04-24T02:15:14;99436.75;;;13.14;52.83
75913;BME280;64592;52.168;21.040;2023-04-24T02:20:17;99427.03;;;13.12;52.96
75913;BME280;64592;52.168;21.040;2023-04-24T02:25:20;99419.47;;;12.98;53.33
75913;BME280;64592;52.168;21.040;2023-04-24T02:30:22;99414.06;;;12.98;53.48
75913;BME280;64592;52.168;21.040;2023-04-24T02:35:24;99415.47;;;13.02;53.19
75913;BME280;64592;52.168;21.040;2023-04-24T02:40:27;99404.63;;;12.84;54.12
75913;BME280;64592;52.168;21.040;2023-04-24T02:45:29;99405.84;;;12.72;54.78
75913;BME280;64592;52.168;21.040;2023-04-24T02:50:30;99413.97;;;12.72;55.22
75913;BME280;64592;52.168;21.040;2023-04-24T02:55:35;99409.19;;;12.66;55.29
75913;BME280;64592;52.168;21.040;2023-04-24T03:00:36;99413.50;;;12.59;55.27
75913;BME280;64592;52.168;21.040;2023-04-24T03:05:39;99405.28;;;12.51;56.04
75913;BME280;64592;52.168;21.040;2023-04-24T03:10:43;99404.47;;;12.40;56.52
75913;BME280;64592;52.168;21.040;2023-04-24T03:15:44;99408.31;;;12.38;56.59
75913;BME280;64592;52.168;21.040;2023-04-24T03:20:47;99405.09;;;12.34;56.13
75913;BME280;64592;52.168;21.040;2023-04-24T03:25:50;99410.09;;;12.29;56.33
75913;BME280;64592;52.168;21.040;2023-04-24T03:30:52;99412.53;;;12.23;56.74
75913;BME280;64592;52.168;21.040;2023-04-24T03:35:53;99425.66;;;12.18;56.42
75913;BME280;64592;52.168;21.040;2023-04-24T03:40:56;99422.53;;;12.13;57.30
75913;BME280;64592;52.168;21.040;2023-04-24T03:45:58;99426.97;;;12.04;57.90
75913;BME280;64592;52.168;21.040;2023-04-24T03:51:00;99420.63;;;11.95;57.58
75913;BME280;64592;52.168;21.040;2023-04-24T03:56:03;99430.44;;;11.96;57.72
75913;BME280;64592;52.168;21.040;2023-04-24T04:01:05;99428.19;;;11.92;58.46
75913;BME280;64592;52.168;21.040;2023-04-24T04:06:06;99433.00;;;11.88;58.97
75913;BME280;64592;52.168;21.040;2023-04-24T04:11:09;99430.31;;;11.88;58.88
75913;BME280;64592;52.168;21.040;2023-04-24T04:16:11;99422.59;;;11.93;59.17
75913;BME280;64592;52.168;21.040;2023-04-24T04:21:13;99428.72;;;11.95;58.57
75913;BME280;64592;52.168;21.040;2023-04-24T04:26:16;99430.28;;;11.98;58.52
75913;BME280;64592;52.168;21.040;2023-04-24T04:31:19;99432.53;;;12.02;58.70
75913;BME280;64592;52.168;21.040;2023-04-24T04:36:21;99432.78;;;12.09;58.24
75913;BME280;64592;52.168;21.040;2023-04-24T04:41:25;99429.50;;;12.15;58.71
75913;BME280;64592;52.168;21.040;2023-04-24T04:46:27;99426.50;;;12.18;58.17
75913;BME280;64592;52.168;21.040;2023-04-24T04:51:32;99421.50;;;12.23;58.10
75913;BME280;64592;52.168;21.040;2023-04-24T04:56:35;99417.19;;;12.30;57.89
75913;BME280;64592;52.168;21.040;2023-04-24T05:01:37;99419.84;;;12.40;57.71
75913;BME280;64592;52.168;21.040;2023-04-24T05:06:38;99414.00;;;12.44;57.61
75913;BME280;64592;52.168;21.040;2023-04-24T05:11:41;99409.00;;;12.50;57.56
75913;BME280;64592;52.168;21.040;2023-04-24T05:16:43;99410.94;;;12.57;57.43
75913;BME280;64592;52.168;21.040;2023-04-24T05:21:45;99407.34;;;12.66;57.70
75913;BME280;64592;52.168;21.040;2023-04-24T05:26:48;99412.34;;;12.79;58.35
75913;BME280;64592;52.168;21.040;2023-04-24T05:31:49;99415.84;;;12.89;57.91
75913;BME280;64592;52.168;21.040;2023-04-24T05:36:51;99407.78;;;12.97;57.74
75913;BME280;64592;52.168;21.040;2023-04-24T05:41:54;99403.03;;;13.09;57.22
75913;BME280;64592;52.168;21.040;2023-04-24T05:46:58;99402.97;;;13.18;57.94
75913;BME280;64592;52.168;21.040;2023-04-24T05:51:59;99397.16;;;13.31;58.01
75913;BME280;64592;52.168;21.040;2023-04-24T05:57:02;99392.81;;;13.38;58.14
75913;BME280;64592;52.168;21.040;2023-04-24T06:02:07;99399.16;;;13.47;58.64
75913;BME280;64592;52.168;21.040;2023-04-24T06:07:10;99399.22;;;13.55;58.24
75913;BME280;64592;52.168;21.040;2023-04-24T06:12:13;99399.28;;;13.63;58.84
75913;BME280;64592;52.168;21.040;2023-04-24T06:17:15;99395.56;;;13.72;59.04
75913;BME280;64592;52.168;21.040;2023-04-24T06:22:17;99388.56;;;13.87;60.18
75913;BME280;64592;52.168;21.040;2023-04-24T06:27:20;99388.66;;;14.04;58.77
75913;BME280;64592;52.168;21.040;2023-04-24T06:32:22;99379.22;;;14.16;59.10
75913;BME280;64592;52.168;21.040;2023-04-24T06:37:24;99383.00;;;14.31;59.29
75913;BME280;64592;52.168;21.040;2023-04-24T06:42:27;99379.72;;;14.45;58.34
75913;BME280;64592;52.168;21.040;2023-04-24T06:47:29;99365.84;;;14.56;58.20
75913;BME280;64592;52.168;21.040;2023-04-24T06:52:31;99376.38;;;14.67;57.48
75913;BME280;64592;52.168;21.040;2023-04-24T06:57:34;99375.75;;;14.82;57.27
75913;BME280;64592;52.168;21.040;2023-04-24T07:02:36;99378.66;;;14.96;57.16
75913;BME280;64592;52.168;21.040;2023-04-24T07:07:37;99378.66;;;15.12;56.18
75913;BME280;64592;52.168;21.040;2023-04-24T07:12:41;99369.66;;;15.28;56.71
75913;BME280;64592;52.168;21.040;2023-04-24T07:17:43;99374.09;;;15.45;56.54
75913;BME280;64592;52.168;21.040;2023-04-24T07:22:45;99370.69;;;15.68;55.61
75913;BME280;64592;52.168;21.040;2023-04-24T07:27:49;99364.69;;;15.88;54.21
75913;BME280;64592;52.168;21.040;2023-04-24T07:32:51;99374.31;;;16.15;53.40
75913;BME280;64592;52.168;21.040;2023-04-24T07:37:53;99372.16;;;16.42;52.89
75913;BME280;64592;52.168;21.040;2023-04-24T07:42:56;99370.72;;;16.62;53.35
75913;BME280;64592;52.168;21.040;2023-04-24T07:47:58;99361.84;;;16.91;53.07
75913;BME280;64592;52.168;21.040;2023-04-24T07:52:59;99357.44;;;17.13;50.55
75913;BME280;64592;52.168;21.040;2023-04-24T07:58:03;99360.63;;;17.39;50.87
75913;BME280;64592;52.168;21.040;2023-04-24T08:03:05;99350.56;;;17.62;49.81
75913;BME280;64592;52.168;21.040;2023-04-24T08:08:06;99355.47;;;17.81;49.90
75913;BME280;64592;52.168;21.040;2023-04-24T08:13:09;99349.84;;;17.98;49.36
75913;BME280;64592;52.168;21.040;2023-04-24T08:18:11;99348.50;;;18.08;48.14
75913;BME280;64592;52.168;21.040;2023-04-24T08:23:13;99350.31;;;18.16;49.05
75913;BME280;64592;52.168;21.040;2023-04-24T08:28:16;99352.38;;;18.29;48.26
75913;BME280;64592;52.168;21.040;2023-04-24T08:33:20;99347.28;;;18.40;48.21
75913;BME280;64592;52.168;21.040;2023-04-24T08:38:22;99347.44;;;18.53;47.97
75913;BME280;64592;52.168;21.040;2023-04-24T08:43:25;99350.75;;;18.64;47.19
75913;BME280;64592;52.168;21.040;2023-04-24T08:48:27;99340.56;;;18.72;47.08
75913;BME280;64592;52.168;21.040;2023-04-24T08:53:30;99338.56;;;18.81;46.77
75913;BME280;64592;52.168;21.040;2023-04-24T08:58:35;99347.25;;;18.91;46.54
75913;BME280;64592;52.168;21.040;2023-04-24T09:03:37;99345.19;;;18.93;45.63
75913;BME280;64592;52.168;21.040;2023-04-24T09:08:41;99342.34;;;19.01;45.50
75913;BME280;64592;52.168;21.040;2023-04-24T09:13:45;99338.25;;;19.12;45.30
75913;BME280;64592;52.168;21.040;2023-04-24T09:18:47;99332.97;;;19.31;45.62
75913;BME280;64592;52.168;21.040;2023-04-24T09:23:57;99321.03;;;19.60;43.51
75913;BME280;64592;52.168;21.040;2023-04-24T09:29:03;99315.69;;;19.80;42.54
75913;BME280;64592;52.168;21.040;2023-04-24T09:34:05;99318.28;;;19.95;42.06
75913;BME280;64592;52.168;21.040;2023-04-24T09:39:10;99309.13;;;20.15;41.51
75913;BME280;64592;52.168;21.040;2023-04-24T09:44:15;99305.03;;;20.33;40.22
75913;BME280;64592;52.168;21.040;2023-04-24T09:49:22;99300.91;;;20.50;42.31
75913;BME280;64592;52.168;21.040;2023-04-24T09:54:24;99292.53;;;20.65;40.64
75913;BME280;64592;52.168;21.040;2023-04-24T09:59:27;99291.91;;;20.82;40.43
75913;BME280;64592;52.168;21.040;2023-04-24T10:04:29;99282.25;;;21.00;41.65
75913;BME280;64592;52.168;21.040;2023-04-24T10:09:31;99281.25;;;21.20;40.15
75913;BME280;64592;52.168;21.040;2023-04-24T10:14:35;99283.16;;;21.33;38.65
75913;BME280;64592;52.168;21.040;2023-04-24T10:19:37;99277.03;;;21.44;37.92
75913;BME280;64592;52.168;21.040;2023-04-24T10:24:40;99276.41;;;21.62;37.80
75913;BME280;64592;52.168;21.040;2023-04-24T10:29:43;99278.44;;;21.80;37.84
75913;BME280;64592;52.168;21.040;2023-04-24T10:34:45;99269.75;;;21.96;37.02
75913;BME280;64592;52.168;21.040;2023-04-24T10:39:47;99260.09;;;22.00;35.32
75913;BME280;64592;52.168;21.040;2023-04-24T10:44:52;99254.91;;;22.23;36.38
75913;BME280;64592;52.168;21.040;2023-04-24T10:49:58;99262.00;;;22.44;33.99
75913;BME280;64592;52.168;21.040;2023-04-24T10:55:01;99260.06;;;22.51;34.65
75913;BME280;64592;52.168;21.040;2023-04-24T11:00:14;99248.19;;;22.57;33.46
75913;BME280;64592;52.168;21.040;2023-04-24T11:05:16;99240.72;;;22.71;33.94
75913;BME280;64592;52.168;21.040;2023-04-24T11:10:25;99243.84;;;22.81;32.83
75913;BME280;64592;52.168;21.040;2023-04-24T11:15:28;99248.66;;;22.86;31.20
75913;BME280;64592;52.168;21.040;2023-04-24T11:20:30;99250.88;;;23.02;30.72
75913;BME280;64592;52.168;21.040;2023-04-24T11:25:32;99251.00;;;23.13;30.54
75913;BME280;64592;52.168;21.040;2023-04-24T11:30:39;99235.22;;;23.27;30.28
75913;BME280;64592;52.168;21.040;2023-04-24T11:35:41;99231.97;;;23.37;30.33
75913;BME280;64592;52.168;21.040;2023-04-24T11:40:44;99234.78;;;23.55;30.33
75913;BME280;64592;52.168;21.040;2023-04-24T11:45:49;99229.16;;;23.68;30.73
75913;BME280;64592;52.168;21.040;2023-04-24T11:50:50;99220.50;;;23.83;29.51
75913;BME280;64592;52.168;21.040;2023-04-24T11:55:52;99224.13;;;23.83;28.84
75913;BME280;64592;52.168;21.040;2023-04-24T12:00:57;99218.31;;;23.91;29.11
75913;BME280;64592;52.168;21.040;2023-04-24T12:06:05;99213.78;;;23.97;29.87
75913;BME280;64592;52.168;21.040;2023-04-24T12:11:08;99191.97;;;24.14;29.80
75913;BME280;64592;52.168;21.040;2023-04-24T12:16:11;99184.63;;;24.26;30.25
75913;BME280;64592;52.168;21.040;2023-04-24T12:21:20;99199.53;;;24.36;28.86
75913;BME280;64592;52.168;21.040;2023-04-24T12:26:22;99200.06;;;24.45;29.55
75913;BME280;64592;52.168;21.040;2023-04-24T12:31:27;99191.31;;;24.48;29.48
75913;BME280;64592;52.168;21.040;2023-04-24T12:36:30;99199.97;;;24.52;28.47
75913;BME280;64592;52.168;21.040;2023-04-24T12:41:32;99202.56;;;24.47;27.93
75913;BME280;64592;52.168;21.040;2023-04-24T12:46:35;99223.16;;;23.53;30.58
75913;BME280;64592;52.168;21.040;2023-04-24T12:51:36;99229.47;;;23.10;31.63
75913;BME280;64592;52.168;21.040;2023-04-24T12:56:38;99248.47;;;22.87;32.28
75913;BME280;64592;52.168;21.040;2023-04-24T13:01:41;99234.97;;;22.79;32.27
75913;BME280;64592;52.168;21.040;2023-04-24T13:06:43;99220.56;;;22.45;32.66
75913;BME280;64592;52.168;21.040;2023-04-24T13:11:44;99222.13;;;22.35;32.67
75913;BME280;64592;52.168;21.040;2023-04-24T13:16:47;99224.56;;;22.50;32.07
75913;BME280;64592;52.168;21.040;2023-04-24T13:21:49;99207.16;;;22.62;31.90
75913;BME280;64592;52.168;21.040;2023-04-24T13:26:51;99209.34;;;22.85;31.60
75913;BME280;64592;52.168;21.040;2023-04-24T13:31:54;99212.25;;;22.90;31.14
75913;BME280;64592;52.168;21.040;2023-04-24T13:36:57;99221.53;;;22.96;30.48
75913;BME280;64592;52.168;21.040;2023-04-24T13:41:59;99212.50;;;23.13;30.47
75913;BME280;64592;52.168;21.040;2023-04-24T13:47:02;99231.63;;;23.51;29.34
75913;BME280;64592;52.168;21.040;2023-04-24T13:52:04;99211.72;;;23.74;28.25
75913;BME280;64592;52.168;21.040;2023-04-24T13:57:05;99200.91;;;24.09;27.72
75913;BME280;64592;52.168;21.040;2023-04-24T14:02:08;99203.69;;;23.91;27.63
75913;BME280;64592;52.168;21.040;2023-04-24T14:07:10;99177.84;;;23.55;27.81
75913;BME280;64592;52.168;21.040;2023-04-24T14:12:12;99162.63;;;23.10;27.38
75913;BME280;64592;52.168;21.040;2023-04-24T14:17:15;99142.66;;;22.96;27.50
75913;BME280;64592;52.168;21.040;2023-04-24T14:22:17;99151.16;;;23.13;28.31
75913;BME280;64592;52.168;21.040;2023-04-24T14:27:18;99140.56;;;23.16;28.21
75913;BME280;64592;52.168;21.040;2023-04-24T14:32:21;99133.50;;;23.02;30.01
75913;BME280;64592;52.168;21.040;2023-04-24T14:37:23;99132.78;;;22.89;30.60
75913;BME280;64592;52.168;21.040;2023-04-24T14:42:25;99124.44;;;22.70;29.42
75913;BME280;64592;52.168;21.040;2023-04-24T14:47:30;99124.09;;;22.60;30.08
75913;BME280;64592;52.168;21.040;2023-04-24T14:52:31;99130.09;;;22.51;28.98
75913;BME280;64592;52.168;21.040;2023-04-24T14:57:33;99107.34;;;22.43;30.29
75913;BME280;64592;52.168;21.040;2023-04-24T15:02:37;99107.34;;;22.43;29.59
75913;BME280;64592;52.168;21.040;2023-04-24T15:07:42;99108.19;;;22.44;29.98
75913;BME280;64592;52.168;21.040;2023-04-24T15:12:43;99103.13;;;22.41;28.99
75913;BME280;64592;52.168;21.040;2023-04-24T15:17:47;99095.81;;;22.60;29.16
75913;BME280;64592;52.168;21.040;2023-04-24T15:22:49;99089.59;;;22.96;27.97
75913;BME280;64592;52.168;21.040;2023-04-24T15:27:50;99083.94;;;23.45;29.74
75913;BME280;64592;52.168;21.040;2023-04-24T15:32:53;99075.06;;;23.43;27.91
75913;BME280;64592;52.168;21.040;2023-04-24T15:37:55;99075.84;;;23.14;29.95
75913;BME280;64592;52.168;21.040;2023-04-24T15:42:57;99074.09;;;22.76;30.69
75913;BME280;64592;52.168;21.040;2023-04-24T15:48:00;99059.13;;;22.48;31.03
75913;BME280;64592;52.168;21.040;2023-04-24T15:53:02;99058.88;;;22.24;32.55
75913;BME280;64592;52.168;21.040;2023-04-24T15:58:03;99055.50;;;21.97;32.12
75913;BME280;64592;52.168;21.040;2023-04-24T16:03:06;99047.53;;;21.83;31.85
75913;BME280;64592;52.168;21.040;2023-04-24T16:08:08;99042.34;;;21.68;32.06
75913;BME280;64592;52.168;21.040;2023-04-24T16:13:10;99045.53;;;21.58;32.52
75913;BME280;64592;52.168;21.040;2023-04-24T16:18:14;99032.72;;;21.52;31.29
75913;BME280;64592;52.168;21.040;2023-04-24T16:23:16;99042.44;;;21.48;31.11
75913;BME280;64592;52.168;21.040;2023-04-24T16:28:18;99048.19;;;21.40;32.03
75913;BME280;64592;52.168;21.040;2023-04-24T16:33:21;99042.72;;;21.34;32.27
75913;BME280;64592;52.168;21.040;2023-04-24T16:38:25;99036.41;;;21.26;32.13
75913;BME280;64592;52.168;21.040;2023-04-24T16:43:27;99045.09;;;21.17;32.56
75913;BME280;64592;52.168;21.040;2023-04-24T16:48:31;99045.09;;;21.10;32.72
75913;BME280;64592;52.168;21.040;2023-04-24T16:53:33;99039.19;;;21.00;33.34
75913;BME280;64592;52.168;21.040;2023-04-24T16:58:35;99043.00;;;20.92;33.32
75913;BME280;64592;52.168;21.040;2023-04-24T17:03:38;99045.59;;;20.81;33.87
75913;BME280;64592;52.168;21.040;2023-04-24T17:08:40;99031.69;;;20.69;33.76
75913;BME280;64592;52.168;21.040;2023-04-24T17:13:42;99035.06;;;20.58;34.17
75913;BME280;64592;52.168;21.040;2023-04-24T17:18:45;99037.19;;;20.49;34.44
75913;BME280;64592;52.168;21.040;2023-04-24T17:23:46;99034.47;;;20.36;34.57
75913;BME280;64592;52.168;21.040;2023-04-24T17:28:48;99039.47;;;20.26;34.91
75913;BME280;64592;52.168;21.040;2023-04-24T17:33:55;99032.31;;;20.19;35.47
75913;BME280;64592;52.168;21.040;2023-04-24T17:38:56;99038.19;;;20.09;36.13
75913;BME280;64592;52.168;21.040;2023-04-24T17:43:58;99038.81;;;19.98;36.45
75913;BME280;64592;52.168;21.040;2023-04-24T17:49:01;99038.19;;;19.89;36.53
75913;BME280;64592;52.168;21.040;2023-04-24T17:54:03;99030.59;;;19.78;37.13
75913;BME280;64592;52.168;21.040;2023-04-24T17:59:05;99038.34;;;19.68;37.04
75913;BME280;64592;52.168;21.040;2023-04-24T18:04:08;99036.66;;;19.60;37.02
75913;BME280;64592;52.168;21.040;2023-04-24T18:09:10;99042.28;;;19.52;37.48
75913;BME280;64592;52.168;21.040;2023-04-24T18:14:14;99042.88;;;19.41;36.46
75913;BME280;64592;52.168;21.040;2023-04-24T18:19:17;99049.94;;;19.29;37.08
75913;BME280;64592;52.168;21.040;2023-04-24T18:24:19;99050.31;;;19.19;36.93
75913;BME280;64592;52.168;21.040;2023-04-24T18:29:21;99050.25;;;19.06;36.41
75913;BME280;64592;52.168;21.040;2023-04-24T18:34:24;99054.00;;;18.98;36.26
75913;BME280;64592;52.168;21.040;2023-04-24T18:39:27;99049.75;;;18.89;35.86
75913;BME280;64592;52.168;21.040;2023-04-24T18:44:29;99059.59;;;18.84;35.53
75913;BME280;64592;52.168;21.040;2023-04-24T18:49:32;99062.69;;;18.74;35.41
75913;BME280;64592;52.168;21.040;2023-04-24T18:54:34;99064.06;;;18.64;35.93
75913;BME280;64592;52.168;21.040;2023-04-24T18:59:35;99060.81;;;18.53;36.22
75913;BME280;64592;52.168;21.040;2023-04-24T19:04:38;99064.75;;;18.44;36.25
75913;BME280;64592;52.168;21.040;2023-04-24T19:09:40;99071.81;;;18.39;36.04
75913;BME280;64592;52.168;21.040;2023-04-24T19:14:42;99075.53;;;18.31;35.66
75913;BME280;64592;52.168;21.040;2023-04-24T19:19:45;99068.97;;;18.26;35.46
75913;BME280;64592;52.168;21.040;2023-04-24T19:24:47;99077.31;;;18.17;35.52
75913;BME280;64592;52.168;21.040;2023-04-24T19:29:48;99082.31;;;18.14;35.78
75913;BME280;64592;52.168;21.040;2023-04-24T19:34:52;99085.44;;;18.11;35.76
75913;BME280;64592;52.168;21.040;2023-04-24T19:39:54;99077.56;;;18.01;35.87
75913;BME280;64592;52.168;21.040;2023-04-24T19:44:56;99074.78;;;17.95;36.40
75913;BME280;64592;52.168;21.040;2023-04-24T19:49:59;99080.34;;;17.87;36.71
75913;BME280;64592;52.168;21.040;2023-04-24T19:55:01;99073.97;;;17.79;37.26
75913;BME280;64592;52.168;21.040;2023-04-24T20:00:03;99082.56;;;17.76;37.53
75913;BME280;64592;52.168;21.040;2023-04-24T20:05:07;99091.72;;;17.69;37.57
75913;BME280;64592;52.168;21.040;2023-04-24T20:10:09;99106.94;;;17.63;37.43
75913;BME280;64592;52.168;21.040;2023-04-24T20:15:11;99111.16;;;17.51;38.06
75913;BME280;64592;52.168;21.040;2023-04-24T20:20:14;99106.22;;;17.40;37.98
75913;BME280;64592;52.168;21.040;2023-04-24T20:25:16;99103.59;;;17.32;38.56
75913;BME280;64592;52.168;21.040;2023-04-24T20:30:17;99098.50;;;17.29;40.29
75913;BME280;64592;52.168;21.040;2023-04-24T20:35:20;99095.50;;;17.24;40.34
75913;BME280;64592;52.168;21.040;2023-04-24T20:40:22;99090.81;;;17.18;40.69
75913;BME280;64592;52.168;21.040;2023-04-24T20:45:24;99103.69;;;17.09;41.32
75913;BME280;64592;52.168;21.040;2023-04-24T20:50:27;99099.28;;;16.93;41.70
75913;BME280;64592;52.168;21.040;2023-04-24T20:55:29;99097.00;;;16.82;42.37
75913;BME280;64592;52.168;21.040;2023-04-24T21:00:31;99102.63;;;16.66;44.34
75913;BME280;64592;52.168;21.040;2023-04-24T21:05:34;99108.75;;;16.60;45.93
75913;BME280;64592;52.168;21.040;2023-04-24T21:10:36;99110.75;;;16.51;46.56
75913;BME280;64592;52.168;21.040;2023-04-24T21:15:38;99112.69;;;16.43;47.94
75913;BME280;64592;52.168;21.040;2023-04-24T21:20:41;99122.38;;;16.22;49.46
75913;BME280;64592;52.168;21.040;2023-04-24T21:25:43;99121.78;;;16.12;50.05
75913;BME280;64592;52.168;21.040;2023-04-24T21:30:45;99112.66;;;16.05;51.13
75913;BME280;64592;52.168;21.040;2023-04-24T21:35:48;99127.88;;;15.91;50.88
75913;BME280;64592;52.168;21.040;2023-04-24T21:40:50;99124.06;;;15.78;52.44
75913;BME280;64592;52.168;21.040;2023-04-24T21:45:52;99110.00;;;15.66;53.23
75913;BME280;64592;52.168;21.040;2023-04-24T21:50:55;99109.59;;;15.55;53.83
75913;BME280;64592;52.168;21.040;2023-04-24T21:55:56;99118.09;;;15.43;54.57
75913;BME280;64592;52.168;21.040;2023-04-24T22:00:58;99113.69;;;15.34;54.91
75913;BME280;64592;52.168;21.040;2023-04-24T22:06:01;99116.16;;;15.21;55.73
75913;BME280;64592;52.168;21.040;2023-04-24T22:11:03;99108.72;;;15.15;56.24
75913;BME280;64592;52.168;21.040;2023-04-24T22:16:05;99115.53;;;15.11;56.50
75913;BME280;64592;52.168;21.040;2023-04-24T22:21:08;99112.16;;;15.01;57.16
75913;BME280;64592;52.168;21.040;2023-04-24T22:26:10;99104.03;;;14.93;57.91
75913;BME280;64592;52.168;21.040;2023-04-24T22:31:11;99099.13;;;14.88;58.32
75913;BME280;64592;52.168;21.040;2023-04-24T22:36:14;99103.56;;;14.81;58.78
75913;BME280;64592;52.168;21.040;2023-04-24T22:41:16;99114.28;;;14.74;59.45
75913;BME280;64592;52.168;21.040;2023-04-24T22:46:18;99109.72;;;14.67;59.91
75913;BME280;64592;52.168;21.040;2023-04-24T22:51:21;99116.16;;;14.66;60.28
75913;BME280;64592;52.168;21.040;2023-04-24T22:56:22;99115.31;;;14.57;60.91
75913;BME280;64592;52.168;21.040;2023-04-24T23:01:24;99115.16;;;14.51;60.71
75913;BME280;64592;52.168;21.040;2023-04-24T23:06:28;99125.16;;;14.42;62.10
75913;BME280;64592;52.168;21.040;2023-04-24T23:11:30;99122.09;;;14.37;62.20
75913;BME280;64592;52.168;21.040;2023-04-24T23:16:31;99119.00;;;14.32;62.86
75913;BME280;64592;52.168;21.040;2023-04-24T23:21:38;99112.94;;;14.30;63.05
75913;BME280;64592;52.168;21.040;2023-04-24T23:26:40;99119.53;;;14.19;63.67
75913;BME280;64592;52.168;21.040;2023-04-24T23:31:41;99123.41;;;14.17;64.15
75913;BME280;64592;52.168;21.040;2023-04-24T23:36:44;99124.94;;;14.11;64.46
75913;BME280;64592;52.168;21.040;2023-04-24T23:41:47;99112.56;;;14.09;64.69
75913;BME280;64592;52.168;21.040;2023-04-24T23:46:48;99102.25;;;14.12;64.68
75913;BME280;64592;52.168;21.040;2023-04-24T23:51:52;99109.22;;;14.07;65.11
75913;BME280;64592;52.168;21.040;2023-04-24T23:56:53;99090.03;;;14.08;65.46
